Latest Weather Observations for Melbourne Airport

IDV60801

Issued at 6:32 pm EST Sunday 28 August 2016 (issued every 30 minutes, with the page automatically refreshed every 10 minutes)

About weather observations | Map of weather stations | Latest weather observations for VIC | Other Formats
Station Details ID: 086282 Name: MELBOURNE AIRPORT Lat: -37.67 Lon: 144.83 Height: 113.4 m
Data from the previous 72 hours. | See also: Recent months at Melbourne Airport
Date/Time
EST
Temp
°C
App
Temp
°C
Dew
Point
°C
Rel
Hum
%
Delta-T
°C
Wind Press
QNH
hPa
Press
MSL
hPa
Rain since
9am
mm
Dir  Spd
km/h
Gust
km/h
Spd
kts
Gust
kts
28/06:00pm 12.7 8.4 6.9 68 2.8 N 19 22 10 12 1020.0 1020.1 0.0
28/05:30pm 14.4 10.1 7.1 61 3.6 N 19 26 10 14 1019.6 1019.7 0.0
28/05:00pm 15.5 10.5 6.5 55 4.4 N 22 28 12 15 1019.5 1019.6 0.0
28/04:30pm 16.2 11.6 6.4 52 4.8 N 20 28 11 15 1019.4 1019.5 0.0
28/04:00pm 18.3 14.1 5.9 44 6.1 N 17 22 9 12 1019.3 1019.4 0.0
28/03:30pm 16.5 13.6 6.5 51 4.9 N 11 24 6 13 1019.3 1019.4 0.0
28/03:00pm 16.5 12.6 5.2 47 5.4 NNW 15 26 8 14 1019.3 1019.4 0.0
28/02:30pm 16.4 11.7 5.9 50 5.1 N 20 30 11 16 1019.1 1019.2 0.0
28/02:00pm 17.5 12.3 5.6 45 5.8 NNE 22 30 12 16 1019.0 1019.1 0.0
28/01:30pm 16.7 11.9 5.5 47 5.4 N 20 26 11 14 1019.4 1019.5 0.0
28/01:00pm 15.4 10.8 6.4 55 4.4 NNE 20 26 11 14 1019.7 1019.8 0.0
28/12:30pm 15.0 10.0 6.3 56 4.2 NNE 22 32 12 17 1020.0 1020.1 0.0
28/12:00pm 13.1 6.9 6.2 63 3.3 N 28 33 15 18 1020.4 1020.5 0.0
28/11:30am 12.7 5.6 5.4 61 3.4 N 32 37 17 20 1020.5 1020.6 0.0
28/11:00am 12.3 5.1 4.9 60 3.4 N 32 37 17 20 1020.5 1020.6 0.0
28/10:30am 11.4 4.8 4.3 61 3.2 N 28 33 15 18 1020.7 1020.8 0.0
28/10:00am 10.6 3.0 4.1 64 2.9 N 33 39 18 21 1020.6 1020.7 0.0
28/09:30am 10.1 2.5 4.0 66 2.7 N 33 41 18 22 1020.6 1020.7 0.0
28/09:00am 9.6 2.0 3.7 66 2.6 N 33 37 18 20 1020.6 1020.7 0.0
28/08:30am 8.9 1.4 3.3 68 2.4 N 32 37 17 20 1020.6 1020.7 0.0
28/08:00am 8.9 1.3 3.1 67 2.5 N 32 35 17 19 1020.3 1020.4 0.0
28/07:30am 8.5 1.3 3.1 69 2.3 N 30 35 16 19 1020.1 1020.2 0.0
28/07:00am 8.2 1.1 3.3 71 2.1 N 30 35 16 19 1019.8 1019.9 0.0
28/06:30am 8.7 1.5 2.8 66 2.5 N 30 37 16 20 1019.6 1019.7 0.0
28/06:00am 8.3 0.6 3.4 71 2.1 N 33 39 18 21 1019.2 1019.3 0.0
28/05:30am 8.3 0.2 3.2 70 2.2 N 35 43 19 23 1018.8 1018.9 0.0
28/05:00am 8.2 0.7 3.6 73 2.0 N 32 41 17 22 1018.7 1018.8 0.0
28/04:30am 9.4 2.1 2.6 62 2.9 N 30 35 16 19 1018.7 1018.8 0.0
28/04:00am 9.8 2.1 2.3 59 3.2 N 32 39 17 21 1018.5 1018.6 0.0
28/03:30am 9.2 2.0 3.2 66 2.6 N 30 33 16 18 1018.7 1018.8 0.0
28/03:00am 8.9 1.8 3.3 68 2.4 N 30 35 16 19 1018.6 1018.7 0.0
28/02:30am 8.7 1.0 3.6 70 2.2 N 33 39 18 21 1018.9 1019.0 0.0
28/02:00am 8.8 1.8 4.0 72 2.1 N 30 35 16 19 1019.0 1019.1 0.0
28/01:30am 9.7 4.1 3.2 64 2.8 N 22 28 12 15 1019.3 1019.4 0.0
28/01:00am 9.6 3.3 3.7 66 2.6 N 26 33 14 18 1019.4 1019.5 0.0
28/12:30am 9.9 3.2 3.5 64 2.8 N 28 35 15 19 1019.4 1019.5 0.0
28/12:00am 9.6 2.2 3.9 67 2.5 N 32 37 17 20 1019.4 1019.5 0.0
 
Date/Time
EST
Temp
°C
App
Temp
°C
Dew
Point
°C
Rel
Hum
%
Delta-T
°C
Wind Press
QNH
hPa
Press
MSL
hPa
Rain since
9am
mm
Dir  Spd
km/h
Gust
km/h
Spd
kts
Gust
kts
27/11:30pm 10.1 3.4 3.7 64 2.8 N 28 33 15 18 1019.5 1019.6 0.0
27/11:00pm 9.9 2.9 4.3 68 2.5 N 30 37 16 20 1019.5 1019.6 0.0
27/10:35pm 10.2 3.2 3.9 65 2.8 N 30 52 16 28 1019.7 1019.8 0.0
27/10:30pm 9.9 3.3 4.3 68 2.5 N 28 37 15 20 1019.8 1019.9 0.0
27/10:00pm 10.2 3.2 3.9 65 2.8 N 30 35 16 19 1020.1 1020.2 0.0
27/09:30pm 10.4 5.2 3.6 63 3.0 N 20 32 11 17 1020.2 1020.3 0.0
27/09:00pm 10.6 6.0 3.8 63 3.0 N 17 26 9 14 1020.6 1020.7 0.0
27/08:30pm 10.2 5.0 3.6 63 2.9 N 20 24 11 13 1020.4 1020.5 0.0
27/08:00pm 9.8 5.2 3.6 65 2.7 N 17 20 9 11 1020.1 1020.2 0.0
27/07:30pm 10.5 6.6 3.2 60 3.2 NNW 13 17 7 9 1020.2 1020.3 0.0
27/07:00pm 11.0 6.6 2.7 56 3.6 NNW 15 20 8 11 1019.8 1019.9 0.0
27/06:30pm 11.5 7.1 2.8 55 3.8 NNW 15 22 8 12 1019.3 1019.4 0.0
27/06:00pm 11.6 7.3 3.5 57 3.6 N 15 19 8 10 1019.1 1019.2 0.0
27/05:30pm 12.2 6.9 3.2 54 4.0 N 20 26 11 14 1018.8 1018.9 0.0
27/05:00pm 12.6 7.6 3.4 53 4.1 NNW 19 26 10 14 1018.9 1019.0 0.0
27/04:30pm 13.2 7.5 3.1 50 4.5 N 22 39 12 21 1018.6 1018.7 0.0
27/04:00pm 13.3 6.5 3.0 49 4.6 N 28 35 15 19 1018.5 1018.6 0.0
27/03:30pm 13.8 7.9 1.9 44 5.2 NW 22 32 12 17 1018.9 1019.0 0.0
27/03:00pm 14.7 8.4 1.7 41 5.7 NW 24 33 13 18 1018.7 1018.8 0.0
27/02:30pm 15.2 8.5 1.5 39 6.0 NW 26 37 14 20 1019.2 1019.3 0.0
27/02:00pm 14.4 7.6 0.9 40 5.8 NW 26 39 14 21 1019.5 1019.6 0.0
27/01:30pm 14.8 7.7 1.2 39 5.9 NNW 28 37 15 20 1019.6 1019.7 0.0
27/01:00pm 15.0 8.4 1.8 41 5.8 NW 26 39 14 21 1020.0 1020.1 0.0
27/12:30pm 14.5 7.8 1.4 41 5.7 NNW 26 39 14 21 1020.7 1020.8 0.0
27/12:00pm 13.3 7.3 0.8 42 5.3 NNW 22 35 12 19 1021.3 1021.4 0.0
27/11:30am 13.9 7.0 2.6 46 5.0 NW 28 37 15 20 1022.0 1022.2 0.0
27/11:00am 12.4 5.7 1.7 48 4.6 NNW 26 37 14 20 1022.0 1022.2 0.0
27/10:30am 12.4 4.7 2.3 50 4.4 WNW 32 41 17 22 1022.1 1022.3 0.0
27/10:00am 11.3 5.0 1.6 51 4.1 NW 24 33 13 18 1022.1 1022.3 0.0
27/09:30am 11.1 5.1 1.3 51 4.1 NNW 22 37 12 20 1022.2 1022.4 0.0
27/09:00am 10.3 5.5 2.6 59 3.3 NNW 17 24 9 13 1022.4 1022.6 0.0
27/08:30am 9.8 5.5 3.1 63 2.9 NNW 15 20 8 11 1022.9 1023.1 0.0
27/08:00am 7.7 2.4 3.0 72 2.0 N 20 24 11 13 1022.6 1022.8 0.0
27/07:30am 5.9 0.5 2.2 77 1.5 N 20 24 11 13 1022.5 1022.7 0.0
27/07:00am 5.4 0.1 1.6 76 1.5 N 19 22 10 12 1022.4 1022.6 0.0
27/06:30am 5.8 0.5 1.8 75 1.6 N 19 20 10 11 1022.0 1022.2 0.0
27/06:00am 5.9 0.6 1.7 74 1.7 N 19 22 10 12 1021.7 1021.9 0.0
27/05:30am 5.9 0.4 1.7 74 1.7 N 20 24 11 13 1021.3 1021.4 0.0
27/05:00am 7.1 2.2 2.0 70 2.1 N 17 22 9 12 1021.3 1021.4 0.0
27/04:30am 8.1 3.5 1.8 64 2.6 NNW 15 20 8 11 1021.3 1021.4 0.0
27/04:00am 8.9 4.0 1.7 60 3.0 NNW 17 22 9 12 1021.1 1021.2 0.0
27/03:30am 9.4 4.8 1.4 57 3.3 NNW 15 20 8 11 1021.0 1021.1 0.0
27/03:00am 9.2 4.3 2.0 60 3.0 NNW 17 24 9 13 1021.1 1021.2 0.0
27/02:30am 9.2 4.6 1.8 60 3.1 NNW 15 22 8 12 1021.4 1021.5 0.0
27/02:00am 9.2 3.9 2.0 60 3.0 NNW 19 22 10 12 1021.6 1021.8 0.0
27/01:30am 8.9 4.0 2.2 63 2.8 N 17 20 9 11 1021.8 1022.0 0.0
27/01:00am 8.9 3.7 2.2 63 2.8 NNW 19 22 10 12 1022.0 1022.2 0.0
27/12:30am 9.1 3.6 1.9 60 3.0 NNW 20 26 11 14 1022.2 1022.4 0.0
27/12:00am 9.6 4.6 1.4 56 3.4 NNW 17 26 9 14 1022.1 1022.3 0.0
 
Date/Time
EST
Temp
°C
App
Temp
°C
Dew
Point
°C
Rel
Hum
%
Delta-T
°C
Wind Press
QNH
hPa
Press
MSL
hPa
Rain since
9am
mm
Dir  Spd
km/h
Gust
km/h
Spd
kts
Gust
kts
26/11:30pm 10.0 4.6 1.3 54 3.6 NNW 19 26 10 14 1022.3 1022.5 0.0
26/11:00pm 9.4 4.8 1.4 57 3.3 NNW 15 19 8 10 1022.3 1022.5 0.0
26/10:30pm 8.5 3.6 2.3 65 2.6 N 17 20 9 11 1022.1 1022.3 0.0
26/10:00pm 8.9 4.4 1.9 61 2.9 N 15 19 8 10 1022.0 1022.2 0.0
26/09:30pm 9.1 4.5 1.6 59 3.1 NNW 15 19 8 10 1021.9 1022.1 0.0
26/09:00pm 10.1 5.0 0.9 53 3.8 NNW 17 22 9 12 1022.0 1022.2 0.0
26/08:30pm 10.5 5.8 0.8 51 4.0 NNW 15 20 8 11 1022.0 1022.2 0.0
26/08:00pm 10.4 5.8 1.3 53 3.8 NNW 15 19 8 10 1021.9 1022.1 0.0
26/07:30pm 10.8 6.1 0.9 50 4.1 NNW 15 20 8 11 1021.9 1022.1 0.0
26/07:00pm 11.0 6.7 1.2 51 4.1 NNW 13 17 7 9 1021.8 1022.0 0.0
26/06:30pm 10.7 6.5 1.7 53 3.8 NNW 13 17 7 9 1021.4 1021.5 0.0
26/06:00pm 10.6 6.1 2.4 57 3.5 NW 15 19 8 10 1021.4 1021.5 0.0
26/05:30pm 10.9 6.5 2.6 56 3.6 WNW 15 20 8 11 1021.0 1021.1 0.0
26/05:00pm 11.3 7.2 2.2 53 3.9 WNW 13 19 7 10 1020.9 1021.0 0.0
26/04:30pm 11.5 6.6 1.9 51 4.1 WNW 17 20 9 11 1020.9 1021.0 0.0
26/04:00pm 11.9 7.3 1.6 49 4.4 WNW 15 22 8 12 1020.6 1020.7 0.0
26/03:30pm 12.8 7.7 1.0 44 5.0 W 17 22 9 12 1020.7 1020.8 0.0
26/03:00pm 12.0 7.1 2.0 50 4.3 WSW 17 35 9 19 1020.6 1020.7 0.0
26/02:30pm 11.9 7.0 2.2 51 4.2 W 17 24 9 13 1020.8 1020.9 0.0
26/02:00pm 12.1 7.9 3.6 56 3.8 W 15 24 8 13 1021.0 1021.1 0.0
26/01:30pm 11.2 6.1 3.0 57 3.6 WSW 19 26 10 14 1021.1 1021.2 0.0
26/01:00pm 12.3 8.1 3.8 56 3.8 WSW 15 26 8 14 1021.3 1021.4 0.0
26/12:30pm 11.3 6.0 2.8 56 3.7 SW 20 28 11 15 1021.6 1021.8 0.0
26/12:00pm 11.4 6.7 2.9 56 3.7 WSW 17 24 9 13 1021.9 1022.1 0.0
26/11:30am 12.3 6.9 1.5 47 4.6 WSW 19 26 10 14 1022.0 1022.2 0.0
26/11:00am 12.2 7.0 2.3 51 4.3 WSW 19 28 10 15 1022.1 1022.3 0.0
26/10:30am 11.2 5.9 3.2 58 3.5 WSW 20 26 11 14 1022.1 1022.3 0.0
26/10:00am 10.6 6.2 4.6 66 2.7 WSW 17 28 9 15 1022.1 1022.3 0.0
26/09:30am 9.4 3.9 3.9 68 2.4 WSW 22 30 12 16 1022.3 1022.5 0.0
26/09:00am 8.8 4.4 4.8 76 1.8 W 17 24 9 13 1022.2 1022.4 0.0
26/08:30am 8.6 4.6 5.0 78 1.6 WNW 15 20 8 11 1022.0 1022.2 0.0
26/08:00am 8.4 4.8 5.0 79 1.5 WNW 13 17 7 9 1021.9 1022.1 0.0
26/07:30am 7.3 3.7 4.8 84 1.1 W 13 15 7 8 1021.9 1022.1 0.0
26/07:00am 7.0 3.0 5.0 87 0.9 WNW 15 26 8 14 1021.5 1021.6 0.0
26/06:30am 6.7 2.7 4.9 88 0.8 WNW 15 20 8 11 1021.0 1021.1 0.0
26/06:00am 6.2 2.5 4.3 88 0.8 WNW 13 15 7 8 1020.9 1021.0 0.0
26/05:30am 4.9 1.1 3.7 92 0.5 WNW 13 15 7 8 1020.7 1020.8 0.0
26/05:00am 6.2 2.1 4.1 86 0.9 W 15 24 8 13 1020.4 1020.5 0.0
26/04:30am 6.4 2.0 4.6 88 0.8 W 17 20 9 11 1019.9 1020.0 0.0
26/04:00am 6.6 2.2 4.5 86 0.9 W 17 20 9 11 1019.7 1019.8 0.0
26/03:30am 6.5 2.4 4.4 86 0.9 W 15 20 8 11 1019.6 1019.7 0.0
26/03:00am 6.8 2.6 4.0 82 1.2 W 15 22 8 12 1019.7 1019.8 0.0
26/02:30am 5.9 1.4 4.0 88 0.8 W 17 20 9 11 1019.6 1019.7 0.0
26/02:00am 4.7 0.4 3.2 90 0.6 WNW 15 17 8 9 1019.8 1019.9 0.0
26/01:30am 4.6 0.3 3.4 92 0.5 WNW 15 17 8 9 1019.9 1020.0 0.0
26/01:00am 5.1 0.9 3.7 91 0.6 WNW 15 17 8 9 1020.0 1020.1 0.0
26/12:30am 6.6 2.2 5.0 89 0.7 W 17 20 9 11 1019.9 1020.0 0.0
26/12:00am 6.6 2.7 5.2 91 0.6 W 15 19 8 10 1019.7 1019.8 0.0
 
Date/Time
EST
Temp
°C
App
Temp
°C
Dew
Point
°C
Rel
Hum
%
Delta-T
°C
Wind Press
QNH
hPa
Press
MSL
hPa
Rain since
9am
mm
Dir  Spd
km/h
Gust
km/h
Spd
kts
Gust
kts
25/11:30pm 6.6 2.5 4.5 86 0.9 W 15 20 8 11 1019.7 1019.8 0.0
25/11:00pm 5.1 0.9 3.7 91 0.6 W 15 20 8 11 1019.6 1019.7 0.0
25/10:30pm 5.4 1.3 4.2 92 0.5 W 15 19 8 10 1019.5 1019.6 0.0
25/10:00pm 5.2 1.3 3.5 89 0.7 W 13 15 7 8 1019.5 1019.6 0.0
25/09:30pm 6.3 2.6 4.2 86 0.9 W 13 15 7 8 1019.3 1019.4 0.0
25/09:00pm 7.1 3.8 4.6 84 1.1 WSW 11 13 6 7 1019.3 1019.4 0.0
25/08:30pm 6.4 3.1 4.3 86 0.9 WSW 11 13 6 7 1019.1 1019.2 0.0
25/08:00pm 6.9 3.6 4.4 84 1.1 WSW 11 15 6 8 1018.8 1018.9 0.0
25/07:30pm 7.0 3.0 4.7 85 1.0 WSW 15 17 8 9 1018.5 1018.6 0.0
25/07:00pm 7.3 4.0 4.6 83 1.2 SW 11 13 6 7 1018.1 1018.2 0.0

Other Formats:

Comma delimited format used in spreadsheet applications
http://www.bom.gov.au/fwo/IDV60801/IDV60801.94866.axf

JavaScript Object Notation format (JSON) in row-major order
http://www.bom.gov.au/fwo/IDV60801/IDV60801.94866.json